Time;durP1;ratioP1;P1;durP2;ratioP2;P2;SDS_P1;SDS_P2;PMS_P1;PMS_P2;Temp;Humidity;BMP_temperature;BMP_pressure;BME280_temperature;BME280_humidity;BME280_pressure;Samples;Min_cycle;Max_cycle;Signal;HPM_P1;HPM_P2
2022/11/05 00:10:47;;;;;;;12.23;6.43;;;6.20;99.90;;;;;;7373295;19;20091;-54
2022/11/05 00:19:05;;;;;;;13.52;6.70;;;6.60;99.90;;;;;;7374697;19;20510;-54
2022/11/05 00:27:03;;;;;;;9.95;5.93;;;6.80;99.90;;;;;;7373143;19;20019;-53
2022/11/05 00:29:29;;;;;;;9.65;5.97;;;6.80;99.90;;;;;;7374152;19;20010;-53
2022/11/05 00:31:56;;;;;;;10.20;5.07;;;6.90;99.90;;;;;;7372898;19;20022;-53
2022/11/05 00:34:23;;;;;;;10.07;5.90;;;6.90;99.90;;;;;;7371047;19;20370;-51
2022/11/05 00:36:49;;;;;;;10.80;4.90;;;6.90;99.90;;;;;;7373369;19;20018;-51
2022/11/05 00:39:15;;;;;;;10.07;4.95;;;6.80;99.90;;;;;;7372649;19;20025;-51
2022/11/05 00:41:41;;;;;;;8.95;4.28;;;6.80;99.90;;;;;;7373991;19;20021;-52
2022/11/05 00:49:54;;;;;;;9.55;4.45;;;6.90;99.90;;;;;;7372419;19;20015;-51
2022/11/05 00:55:04;;;;;;;8.52;3.83;;;6.90;99.90;;;;;;7368744;19;20466;-50
2022/11/05 00:57:31;;;;;;;10.95;4.43;;;6.90;99.90;;;;;;7373308;19;20022;-53
2022/11/05 00:59:57;;;;;;;7.72;4.05;;;6.90;99.90;;;;;;7373707;19;20025;-54
2022/11/05 01:02:23;;;;;;;7.57;4.32;;;6.90;99.90;;;;;;7374154;19;20025;-54
2022/11/05 01:04:50;;;;;;;9.20;4.22;;;6.90;99.90;;;;;;7368475;19;20018;-52
2022/11/05 01:07:17;;;;;;;7.82;4.25;;;6.80;99.90;;;;;;7373253;19;20014;-54
2022/11/05 01:09:43;;;;;;;9.63;3.85;;;6.80;99.90;;;;;;7370561;19;20436;-54
2022/11/05 01:12:10;;;;;;;11.15;4.03;;;6.80;99.90;;;;;;7373585;19;20029;-54
2022/11/05 01:14:36;;;;;;;10.80;4.38;;;6.80;99.90;;;;;;7367501;19;20022;-53
2022/11/05 01:17:02;;;;;;;10.65;4.07;;;6.80;99.90;;;;;;7369627;19;20068;-50
2022/11/05 01:19:28;;;;;;;10.10;4.03;;;6.70;99.90;;;;;;7357945;19;20980;-48
2022/11/05 01:21:54;;;;;;;5.97;3.60;;;6.70;99.90;;;;;;7364705;19;20022;-50
2022/11/05 01:24:20;;;;;;;8.23;4.13;;;6.60;99.90;;;;;;7361469;19;20786;-51
2022/11/05 01:26:46;;;;;;;7.63;3.22;;;6.50;99.90;;;;;;7364085;19;20018;-47
2022/11/05 01:29:13;;;;;;;8.90;3.42;;;6.50;99.90;;;;;;7360060;19;20022;-48
2022/11/05 01:31:39;;;;;;;7.25;3.10;;;6.30;99.90;;;;;;7364311;19;20581;-47
2022/11/05 01:34:05;;;;;;;5.75;3.00;;;6.30;99.90;;;;;;7359288;19;20018;-47
2022/11/05 01:36:31;;;;;;;7.18;3.92;;;6.20;99.90;;;;;;7364741;19;20029;-49
2022/11/05 01:38:57;;;;;;;7.25;3.05;;;6.10;99.90;;;;;;7358928;19;20019;-47
2022/11/05 01:41:23;;;;;;;8.90;3.83;;;6.10;99.90;;;;;;7362387;19;20597;-51
2022/11/05 01:43:51;;;;;;;8.90;3.70;;;6.00;99.90;;;;;;7358670;19;20022;-49
2022/11/05 01:46:31;;;;;;;7.90;3.33;;;6.00;99.90;;;;;;7361325;19;20498;-51
2022/11/05 01:49:25;;;;;;;5.75;3.88;;;5.90;99.90;;;;;;7359822;19;20019;-50
2022/11/05 01:51:51;;;;;;;6.15;3.85;;;5.90;99.90;;;;;;7362423;19;20018;-49
2022/11/05 01:54:21;;;;;;;5.00;3.70;;;5.80;99.90;;;;;;7358094;19;20038;-51
2022/11/05 01:57:01;;;;;;;7.78;4.18;;;5.80;99.90;;;;;;7360102;19;20053;-49
2022/11/05 01:59:44;;;;;;;7.75;4.68;;;5.70;99.90;;;;;;7362164;19;20018;-50
2022/11/05 02:02:11;;;;;;;10.15;4.68;;;5.70;99.90;;;;;;7363264;19;20503;-48
2022/11/05 02:04:47;;;;;;;8.45;4.90;;;5.70;99.90;;;;;;7362157;19;20036;-52
2022/11/05 02:07:14;;;;;;;8.65;4.40;;;5.60;99.90;;;;;;7361400;19;20022;-51
2022/11/05 02:10:06;;;;;;;11.57;4.57;;;5.60;99.90;;;;;;7362273;19;20575;-52
2022/11/05 02:12:35;;;;;;;9.18;4.57;;;5.60;99.90;;;;;;7361389;19;20023;-48
2022/11/05 02:15:01;;;;;;;9.05;4.22;;;5.60;99.90;;;;;;7356756;19;20059;-50
2022/11/05 02:17:50;;;;;;;8.60;4.57;;;5.60;99.90;;;;;;7355909;19;20424;-52
2022/11/05 02:20:37;;;;;;;12.15;5.22;;;5.60;99.90;;;;;;7372354;19;20051;-50
2022/11/05 02:23:21;;;;;;;14.63;5.70;;;5.50;99.90;;;;;;7372890;19;20023;-51
2022/11/05 02:25:51;;;;;;;8.55;5.43;;;5.50;99.90;;;;;;7371492;19;20022;-49
2022/11/05 02:28:43;;;;;;;12.50;5.80;;;5.50;99.90;;;;;;7372594;19;20043;-48
2022/11/05 02:31:33;;;;;;;10.60;6.18;;;5.50;99.90;;;;;;7372427;19;20042;-48
2022/11/05 02:34:15;;;;;;;12.50;6.03;;;5.60;99.90;;;;;;7370534;19;20014;-48
2022/11/05 02:36:44;;;;;;;13.73;6.68;;;5.60;99.90;;;;;;7375513;19;20026;-49
2022/11/05 02:39:42;;;;;;;12.30;7.15;;;5.60;99.90;;;;;;7371760;19;20074;-48
2022/11/05 02:42:20;;;;;;;11.48;7.07;;;5.60;99.90;;;;;;7374050;19;20458;-52
2022/11/05 02:44:51;;;;;;;11.73;6.60;;;5.70;99.90;;;;;;7372545;19;20018;-52
2022/11/05 02:47:41;;;;;;;10.57;7.00;;;5.60;99.90;;;;;;7369994;19;20078;-53
2022/11/05 02:50:19;;;;;;;12.43;6.55;;;5.60;99.90;;;;;;7369899;19;20023;-50
2022/11/05 02:52:50;;;;;;;12.13;7.03;;;5.60;99.90;;;;;;7376143;19;20482;-50
2022/11/05 02:55:40;;;;;;;11.50;7.33;;;5.60;99.90;;;;;;7369798;19;20023;-49
2022/11/05 02:58:07;;;;;;;16.75;7.72;;;5.50;99.90;;;;;;7376162;19;20023;-52
2022/11/05 03:00:53;;;;;;;8.57;5.97;;;5.60;99.90;;;;;;7371897;19;20908;-50
2022/11/05 03:03:33;;;;;;;10.70;6.93;;;5.60;99.90;;;;;;7373393;19;20019;-50
2022/11/05 03:06:11;;;;;;;12.00;6.15;;;5.60;99.90;;;;;;7363326;19;20061;-52
2022/11/05 03:09:05;;;;;;;9.70;6.38;;;5.60;99.90;;;;;;7371415;19;20358;-53
2022/11/05 03:11:40;;;;;;;13.50;6.90;;;5.70;99.90;;;;;;7379246;19;20053;-51
2022/11/05 03:14:06;;;;;;;9.48;5.88;;;5.70;99.90;;;;;;7371081;19;20018;-46
2022/11/05 03:16:41;;;;;;;11.90;6.70;;;5.80;99.90;;;;;;7364041;19;20404;-47
2022/11/05 03:19:16;;;;;;;10.45;6.53;;;5.80;99.90;;;;;;7378021;19;20022;-53
2022/11/05 03:21:47;;;;;;;9.27;5.90;;;5.70;99.90;;;;;;7380749;19;20019;-53
2022/11/05 03:24:22;;;;;;;10.65;5.03;;;5.70;99.90;;;;;;7379494;19;20023;-54
2022/11/05 03:26:56;;;;;;;9.68;6.10;;;5.60;99.90;;;;;;7377640;19;20014;-52
2022/11/05 03:29:27;;;;;;;9.10;6.13;;;5.60;99.90;;;;;;7386401;19;20026;-51
2022/11/05 03:31:57;;;;;;;8.73;5.60;;;5.60;99.90;;;;;;7383130;19;20035;-51
2022/11/05 03:34:29;;;;;;;9.80;5.78;;;5.50;99.90;;;;;;7384529;19;20463;-53
2022/11/05 03:36:57;;;;;;;8.63;6.63;;;5.50;99.90;;;;;;7381728;19;20622;-52
2022/11/05 03:39:35;;;;;;;11.98;6.00;;;5.50;99.90;;;;;;7385626;19;20025;-52
2022/11/05 03:42:05;;;;;;;13.52;5.78;;;5.40;99.90;;;;;;7386314;19;20014;-53
2022/11/05 03:44:35;;;;;;;9.02;5.43;;;5.40;99.90;;;;;;7386051;19;20014;-53
2022/11/05 03:47:15;;;;;;;9.45;5.57;;;5.30;99.90;;;;;;7383880;19;20046;-54
2022/11/05 03:50:01;;;;;;;7.80;5.28;;;5.30;99.90;;;;;;7384929;19;20018;-53
2022/11/05 03:52:32;;;;;;;6.90;4.95;;;5.20;99.90;;;;;;7386804;19;20019;-53
2022/11/05 03:54:58;;;;;;;7.35;5.85;;;5.20;99.90;;;;;;7380039;19;20048;-52
2022/11/05 03:57:29;;;;;;;11.82;5.40;;;5.20;99.90;;;;;;7383904;19;20495;-53
2022/11/05 03:59:56;;;;;;;9.52;6.18;;;5.20;99.90;;;;;;7386229;19;20760;-55
2022/11/05 04:02:25;;;;;;;8.82;5.88;;;5.20;99.90;;;;;;7384109;19;20115;-53
2022/11/05 04:04:53;;;;;;;9.63;5.68;;;5.20;99.90;;;;;;7385926;19;20034;-53
2022/11/05 04:18:21;;;;;;;11.55;7.57;;;5.30;99.90;;;;;;7382758;19;20015;-55
2022/11/05 04:26:22;;;;;;;13.18;7.32;;;5.50;99.90;;;;;;7382587;19;20022;-56
2022/11/05 04:31:34;;;;;;;12.27;6.95;;;5.50;99.90;;;;;;7384333;19;20124;-53
2022/11/05 04:34:00;;;;;;;10.35;6.32;;;5.50;99.90;;;;;;7380155;19;20019;-53
2022/11/05 04:36:27;;;;;;;10.65;6.35;;;5.50;99.90;;;;;;7380169;19;20022;-55
2022/11/05 04:38:53;;;;;;;9.65;6.18;;;5.60;99.90;;;;;;7383452;19;20014;-51
2022/11/05 04:41:19;;;;;;;11.00;6.40;;;5.50;99.90;;;;;;7381339;19;20022;-55
2022/11/05 04:43:46;;;;;;;12.35;6.57;;;5.60;99.90;;;;;;7382494;19;20025;-52
2022/11/05 04:46:12;;;;;;;12.25;6.47;;;5.60;99.90;;;;;;7382777;19;20018;-53
2022/11/05 04:48:38;;;;;;;9.88;6.22;;;5.60;99.90;;;;;;7383966;19;20022;-52
2022/11/05 04:51:04;;;;;;;12.85;6.30;;;5.60;99.90;;;;;;7379598;19;20416;-51
2022/11/05 04:53:31;;;;;;;11.60;6.15;;;5.50;99.90;;;;;;7377713;19;20019;-52
2022/11/05 04:56:16;;;;;;;11.02;5.85;;;5.50;99.90;;;;;;7378352;19;20014;-55
2022/11/05 04:58:42;;;;;;;8.10;5.13;;;5.40;99.90;;;;;;7377461;19;20026;-57
2022/11/05 05:01:17;;;;;;;12.38;6.00;;;5.40;99.90;;;;;;7375495;19;20036;-52
2022/11/05 05:03:47;;;;;;;10.50;5.70;;;5.30;99.90;;;;;;7377285;19;20026;-52
2022/11/05 05:06:13;;;;;;;9.88;5.10;;;5.30;99.90;;;;;;7378983;19;20014;-52
2022/11/05 05:08:40;;;;;;;10.13;5.43;;;5.20;99.90;;;;;;7376397;19;20081;-50
2022/11/05 05:11:12;;;;;;;8.95;5.18;;;5.10;99.90;;;;;;7372100;19;20382;-50
2022/11/05 05:13:39;;;;;;;;;;;5.10;99.90;;;;;;7376277;19;20026;-48
2022/11/05 05:16:06;;;;;;;5.55;4.35;;;5.10;99.90;;;;;;7370207;19;19922;-49
2022/11/05 05:18:33;;;;;;;10.77;4.65;;;5.10;99.90;;;;;;7373612;19;20036;-52
2022/11/05 05:23:47;;;;;;;14.02;5.05;;;5.00;99.90;;;;;;7380188;19;20022;-52
2022/11/05 05:26:15;;;;;;;10.85;4.50;;;4.90;99.90;;;;;;7380826;19;20501;-53
2022/11/05 05:28:41;;;;;;;8.50;4.70;;;4.90;99.90;;;;;;7382503;19;20015;-55
2022/11/05 05:31:08;;;;;;;9.18;4.70;;;4.90;99.90;;;;;;7379655;19;20022;-54
2022/11/05 05:33:34;;;;;;;8.38;4.70;;;4.90;99.90;;;;;;7379979;19;20390;-47
2022/11/05 05:36:01;;;;;;;10.48;5.38;;;4.90;99.90;;;;;;7371569;19;20023;-52
2022/11/05 05:38:28;;;;;;;9.60;5.03;;;4.90;99.90;;;;;;7373888;19;20531;-49
2022/11/05 05:40:58;;;;;;;10.07;5.28;;;4.90;99.90;;;;;;7380020;19;20696;-54
2022/11/05 05:43:31;;;;;;;12.90;5.20;;;4.90;99.90;;;;;;7374620;19;20365;-52
2022/11/05 05:46:06;;;;;;;10.82;5.38;;;4.80;99.90;;;;;;7377112;19;20038;-53
2022/11/05 05:48:33;;;;;;;9.65;5.05;;;4.80;99.90;;;;;;7373321;19;20085;-50
2022/11/05 05:51:01;;;;;;;9.38;4.90;;;4.80;99.90;;;;;;7374619;19;20026;-49
2022/11/05 05:53:27;;;;;;;7.88;5.07;;;4.80;99.90;;;;;;7374487;19;20011;-52
2022/11/05 05:55:55;;;;;;;10.18;5.57;;;4.70;99.90;;;;;;7374102;19;20018;-56
2022/11/05 05:58:22;;;;;;;9.55;5.70;;;4.70;99.90;;;;;;7377326;19;20018;-53
2022/11/05 06:00:49;;;;;;;11.10;5.88;;;4.70;99.90;;;;;;7373159;19;20026;-52
2022/11/05 06:03:15;;;;;;;12.93;6.22;;;4.70;99.90;;;;;;7375015;19;20017;-54
2022/11/05 06:05:41;;;;;;;9.60;5.32;;;4.70;99.90;;;;;;7377060;19;20024;-52
2022/11/05 06:08:07;;;;;;;7.65;5.55;;;4.60;99.90;;;;;;7373289;19;20500;-50
2022/11/05 06:10:34;;;;;;;19.70;6.68;;;4.60;99.90;;;;;;7374636;19;20018;-53
2022/11/05 06:13:01;;;;;;;10.70;5.65;;;4.60;99.90;;;;;;7369764;19;20014;-53
2022/11/05 06:15:27;;;;;;;9.52;5.65;;;4.60;99.90;;;;;;7376502;19;20085;-52
2022/11/05 06:17:54;;;;;;;9.85;6.22;;;4.50;99.90;;;;;;7376376;19;20869;-53
2022/11/05 06:20:20;;;;;;;11.25;6.32;;;4.50;99.90;;;;;;7376644;19;20104;-54
2022/11/05 06:22:56;;;;;;;8.50;5.32;;;4.50;99.90;;;;;;7378749;19;20018;-49
2022/11/05 06:25:24;;;;;;;11.27;5.60;;;4.60;99.90;;;;;;7373411;19;20014;-52
2022/11/05 06:27:52;;;;;;;10.70;5.90;;;4.50;99.90;;;;;;7372443;19;20039;-55
2022/11/05 06:30:20;;;;;;;10.02;6.07;;;4.50;99.90;;;;;;7373904;19;20057;-51
2022/11/05 06:32:47;;;;;;;10.25;5.72;;;4.50;99.90;;;;;;7375058;19;20026;-53
2022/11/05 06:35:13;;;;;;;8.43;5.95;;;4.50;99.90;;;;;;7370346;19;20774;-48
2022/11/05 06:37:40;;;;;;;10.20;6.22;;;4.50;99.90;;;;;;7379439;19;20018;-48
2022/11/05 06:40:07;;;;;;;12.75;6.82;;;4.50;99.90;;;;;;7373404;19;20478;-49
2022/11/05 06:42:33;;;;;;;10.43;6.93;;;4.60;99.90;;;;;;7379107;19;20011;-48
2022/11/05 06:45:00;;;;;;;14.75;6.90;;;4.60;99.90;;;;;;7370859;19;20364;-52
2022/11/05 06:47:26;;;;;;;17.17;7.55;;;4.60;99.90;;;;;;7378399;19;20514;-52
2022/11/05 06:49:52;;;;;;;10.57;6.65;;;4.60;99.90;;;;;;7374625;19;20022;-50
2022/11/05 06:52:19;;;;;;;9.35;6.85;;;4.60;99.90;;;;;;7367862;19;20427;-47
2022/11/05 06:54:45;;;;;;;14.10;7.00;;;4.60;99.90;;;;;;7368692;19;20557;-47
2022/11/05 06:57:12;;;;;;;12.13;6.72;;;4.60;99.90;;;;;;7365126;19;20014;-52
2022/11/05 06:59:38;;;;;;;11.13;6.45;;;4.60;99.90;;;;;;7368643;19;20022;-54
2022/11/05 07:02:06;;;;;;;10.15;7.30;;;4.60;99.90;;;;;;7378576;19;20010;-50
2022/11/05 07:04:32;;;;;;;9.45;7.22;;;4.60;99.90;;;;;;7374203;19;20011;-51
2022/11/05 07:06:59;;;;;;;11.75;7.55;;;4.60;99.90;;;;;;7375279;19;20025;-47
2022/11/05 07:09:27;;;;;;;12.65;8.25;;;4.70;99.90;;;;;;7379616;19;20023;-52
2022/11/05 07:11:53;;;;;;;12.77;7.30;;;4.70;99.90;;;;;;7379937;19;20023;-51
2022/11/05 07:14:20;;;;;;;9.88;6.80;;;4.70;99.90;;;;;;7378835;19;20018;-49
2022/11/05 07:16:46;;;;;;;13.02;8.02;;;4.70;99.90;;;;;;7378799;19;20019;-49
2022/11/05 07:19:12;;;;;;;13.88;7.40;;;4.80;99.90;;;;;;7374124;19;20503;-48
2022/11/05 07:21:39;;;;;;;12.02;8.00;;;4.90;99.90;;;;;;7380202;19;20018;-53
2022/11/05 07:24:06;;;;;;;38.80;27.15;;;5.00;99.90;;;;;;7380780;19;20077;-43
2022/11/05 07:26:33;;;;;;;17.55;12.45;;;5.30;99.90;;;;;;7376452;19;20015;-55
2022/11/05 07:28:59;;;;;;;15.10;9.60;;;5.40;99.90;;;;;;7378305;19;20490;-55
2022/11/05 07:31:25;;;;;;;14.23;8.75;;;5.40;99.90;;;;;;7379614;19;20392;-52
2022/11/05 07:33:52;;;;;;;10.13;8.23;;;5.40;99.90;;;;;;7375294;19;20046;-53
2022/11/05 07:36:18;;;;;;;11.55;7.97;;;5.40;99.90;;;;;;7379624;19;20018;-54
2022/11/05 07:38:45;;;;;;;14.35;7.38;;;5.40;99.90;;;;;;7169831;19;3009043;-53
2022/11/05 07:41:11;;;;;;;16.92;7.32;;;5.40;99.90;;;;;;7378332;19;20026;-51
2022/11/05 07:43:37;;;;;;;10.00;7.63;;;5.50;99.90;;;;;;7374251;19;20022;-52
2022/11/05 07:46:04;;;;;;;9.52;6.82;;;5.50;99.90;;;;;;7380994;19;20476;-55
2022/11/05 07:48:30;;;;;;;14.05;7.70;;;5.50;99.90;;;;;;7377262;19;20017;-56
2022/11/05 07:50:56;;;;;;;11.95;7.95;;;5.60;99.90;;;;;;7379653;19;20038;-51
2022/11/05 07:53:23;;;;;;;13.85;8.38;;;5.70;99.90;;;;;;7378257;19;20034;-53
2022/11/05 07:55:51;;;;;;;12.60;8.82;;;5.80;99.90;;;;;;7380815;19;20022;-48
2022/11/05 07:58:18;;;;;;;14.30;8.75;;;5.90;99.90;;;;;;7374704;19;20022;-52
2022/11/05 08:00:44;;;;;;;14.10;8.77;;;5.90;99.90;;;;;;7381213;19;20489;-52
2022/11/05 08:03:14;;;;;;;12.32;8.95;;;6.00;99.90;;;;;;7373344;19;20498;-52
2022/11/05 08:05:44;;;;;;;15.45;9.00;;;6.10;99.90;;;;;;7375600;19;20019;-51
2022/11/05 08:08:16;;;;;;;14.02;8.55;;;6.20;99.90;;;;;;7372917;19;20413;-54
2022/11/05 08:10:43;;;;;;;;;;;6.30;99.90;;;;;;7377723;19;20430;-53
2022/11/05 08:13:10;;;;;;;11.20;7.95;;;6.50;99.90;;;;;;7375555;19;19926;-53
2022/11/05 08:15:38;;;;;;;19.00;8.38;;;6.60;99.90;;;;;;7373955;19;20414;-55
2022/11/05 08:18:07;;;;;;;10.65;8.20;;;6.80;99.90;;;;;;7378183;19;20075;-54
2022/11/05 08:20:34;;;;;;;11.73;7.65;;;7.10;99.90;;;;;;7377517;19;20025;-55
2022/11/05 08:23:00;;;;;;;10.75;6.63;;;8.00;99.90;;;;;;7376998;19;20441;-52
2022/11/05 08:25:27;;;;;;;8.07;5.22;;;8.80;99.90;;;;;;7372399;19;20022;-55
2022/11/05 08:28:05;;;;;;;6.80;4.47;;;9.50;99.90;;;;;;7377142;19;20473;-51
2022/11/05 08:30:32;;;;;;;6.05;3.70;;;10.20;99.90;;;;;;7373373;19;20494;-55
2022/11/05 08:33:01;;;;;;;5.70;3.58;;;10.50;99.90;;;;;;7373035;19;21484;-56
2022/11/05 08:35:28;;;;;;;6.20;3.22;;;10.80;99.90;;;;;;7370038;19;20022;-58
2022/11/05 08:38:00;;;;;;;5.40;3.53;;;11.20;99.90;;;;;;7373199;19;20022;-52
2022/11/05 08:40:27;;;;;;;4.95;2.97;;;11.70;99.90;;;;;;7373967;19;20025;-54
2022/11/05 08:42:56;;;;;;;5.55;2.75;;;12.00;99.90;;;;;;7377545;19;20022;-51
2022/11/05 08:45:23;;;;;;;6.10;3.80;;;12.20;99.90;;;;;;7373540;19;20014;-53
2022/11/05 08:47:50;;;;;;;4.90;2.72;;;12.40;99.90;;;;;;7371913;19;20018;-54
2022/11/05 08:50:16;;;;;;;5.20;3.08;;;12.80;99.90;;;;;;7371456;19;20035;-50
2022/11/05 08:52:42;;;;;;;6.38;3.20;;;13.00;99.90;;;;;;7376003;19;20029;-54
2022/11/05 08:55:09;;;;;;;5.80;3.03;;;13.10;99.90;;;;;;7371427;19;20449;-53
2022/11/05 08:57:35;;;;;;;4.15;2.60;;;13.10;99.90;;;;;;7375733;19;20383;-54
2022/11/05 09:00:01;;;;;;;4.78;2.92;;;13.40;99.90;;;;;;7373462;19;20052;-51
2022/11/05 09:02:28;;;;;;;5.85;2.88;;;13.70;99.90;;;;;;7374686;19;20825;-57
2022/11/05 09:04:54;;;;;;;5.03;3.17;;;13.80;99.90;;;;;;7373937;19;20070;-54
2022/11/05 09:07:21;;;;;;;5.13;3.35;;;14.00;99.90;;;;;;7371662;19;20023;-52
2022/11/05 09:09:48;;;;;;;4.70;2.50;;;14.30;99.90;;;;;;7373785;19;20011;-53
2022/11/05 09:12:14;;;;;;;6.97;3.45;;;14.50;99.90;;;;;;7374918;19;20027;-53
2022/11/05 09:14:40;;;;;;;5.55;2.72;;;14.80;99.90;;;;;;7372522;19;20022;-55
2022/11/05 09:17:19;;;;;;;4.15;2.42;;;14.90;99.90;;;;;;7372843;19;21247;-51
2022/11/05 09:19:46;;;;;;;6.05;2.60;;;14.90;99.90;;;;;;7371822;19;20030;-53
2022/11/05 09:22:12;;;;;;;4.13;2.60;;;15.20;99.90;;;;;;7369841;19;20514;-49
2022/11/05 09:24:40;;;;;;;6.30;2.88;;;15.00;99.90;;;;;;7369946;19;20014;-53
2022/11/05 09:27:12;;;;;;;5.15;2.70;;;15.20;99.90;;;;;;7372619;19;20486;-50
2022/11/05 09:29:39;;;;;;;6.68;2.80;;;15.10;99.90;;;;;;7369273;19;20075;-55
2022/11/05 09:32:06;;;;;;;4.93;2.97;;;14.60;99.90;;;;;;7375341;19;20015;-55
2022/11/05 09:34:33;;;;;;;5.97;2.90;;;14.80;99.90;;;;;;7372520;19;20018;-56
2022/11/05 09:36:59;;;;;;;5.93;3.03;;;15.00;99.90;;;;;;7369395;19;20019;-51
2022/11/05 09:39:26;;;;;;;5.45;2.95;;;14.90;99.90;;;;;;7373073;19;20031;-53
2022/11/05 09:41:55;;;;;;;5.15;2.97;;;15.30;99.90;;;;;;7371532;19;20030;-55
2022/11/05 09:44:36;;;;;;;4.90;2.63;;;15.50;99.90;;;;;;7371204;19;20124;-51
2022/11/05 09:47:06;;;;;;;4.18;2.60;;;15.80;99.90;;;;;;7369960;19;20025;-53
2022/11/05 09:49:42;;;;;;;5.35;2.72;;;15.90;99.90;;;;;;7372825;19;20022;-55
2022/11/05 09:52:29;;;;;;;6.88;3.00;;;16.10;99.90;;;;;;7371956;19;20017;-55
2022/11/05 09:54:57;;;;;;;5.63;2.50;;;16.40;99.90;;;;;;7373473;19;20031;-56
2022/11/05 09:57:35;;;;;;;5.53;2.72;;;16.20;99.90;;;;;;7375484;19;20039;-50
2022/11/05 10:00:05;;;;;;;3.88;2.05;;;16.50;99.90;;;;;;7370316;19;20037;-51
2022/11/05 10:02:36;;;;;;;5.13;2.40;;;16.30;99.90;;;;;;7370199;19;20489;-51
2022/11/05 10:05:07;;;;;;;5.28;2.47;;;17.20;99.90;;;;;;7372518;19;20657;-52
2022/11/05 10:07:44;;;;;;;3.08;2.00;;;17.40;99.90;;;;;;7371634;19;20018;-52
2022/11/05 10:10:25;;;;;;;4.13;2.00;;;17.30;99.90;;;;;;7369387;19;20027;-56
2022/11/05 10:13:14;;;;;;;6.10;2.40;;;17.60;99.90;;;;;;7374748;19;20022;-56
2022/11/05 10:16:11;;;;;;;4.03;1.98;;;17.30;99.90;;;;;;7370086;19;20014;-56
2022/11/05 10:18:47;;;;;;;3.55;2.28;;;17.60;99.90;;;;;;7366460;19;20015;-57
2022/11/05 10:21:19;;;;;;;4.38;2.25;;;17.80;99.90;;;;;;7363724;19;20020;-57
2022/11/05 10:23:45;;;;;;;;;;;17.90;99.90;;;;;;7367806;19;20030;-57
2022/11/05 10:26:20;;;;;;;3.50;2.13;;;18.20;99.90;;;;;;7366492;19;20413;-55
2022/11/05 10:28:48;;;;;;;3.13;1.65;;;17.10;99.90;;;;;;7364610;19;20057;-57
2022/11/05 10:31:22;;;;;;;4.72;2.10;;;16.60;99.90;;;;;;7365447;19;20014;-57
2022/11/05 10:33:54;;;;;;;4.07;2.15;;;16.70;99.90;;;;;;7372345;19;20436;-57
2022/11/05 10:36:24;;;;;;;4.43;2.35;;;17.00;99.90;;;;;;7367426;19;20292;-56
2022/11/05 10:38:52;;;;;;;5.10;2.47;;;16.90;99.90;;;;;;7373032;19;20023;-56
2022/11/05 10:41:28;;;;;;;5.90;2.40;;;17.20;99.90;;;;;;7368094;19;20382;-56
2022/11/05 10:44:03;;;;;;;5.10;1.67;;;17.60;99.90;;;;;;7367647;19;20038;-56
2022/11/05 10:46:52;;;;;;;6.22;2.03;;;17.40;99.90;;;;;;7369772;19;20060;-56
2022/11/05 10:49:38;;;;;;;3.15;1.80;;;17.20;99.90;;;;;;7374941;19;20060;-56
2022/11/05 10:52:19;;;;;;;5.10;1.98;;;16.70;99.90;;;;;;7363472;19;20383;-56
2022/11/05 10:54:47;;;;;;;3.72;2.00;;;16.10;99.90;;;;;;7365277;19;20022;-58
2022/11/05 10:57:42;;;;;;;6.35;2.10;;;15.60;99.90;;;;;;7369736;19;20035;-57
2022/11/05 11:00:17;;;;;;;5.50;1.90;;;15.40;99.90;;;;;;7371233;19;20015;-56
2022/11/05 11:02:56;;;;;;;5.47;2.03;;;15.50;99.90;;;;;;7374319;19;20025;-57
2022/11/05 11:05:41;;;;;;;5.28;2.13;;;15.80;99.90;;;;;;7366174;19;20019;-57
2022/11/05 11:08:10;;;;;;;4.68;2.10;;;16.00;99.90;;;;;;7371288;19;20021;-57
2022/11/05 11:10:50;;;;;;;4.85;2.17;;;16.50;99.90;;;;;;7369347;19;20014;-57
2022/11/05 11:13:20;;;;;;;5.93;2.13;;;16.20;99.90;;;;;;7369251;19;20029;-56
2022/11/05 11:15:49;;;;;;;3.65;1.85;;;16.00;99.90;;;;;;7373388;19;20027;-57
2022/11/05 11:18:24;;;;;;;5.13;2.28;;;15.90;99.90;;;;;;7371572;19;20391;-57
2022/11/05 11:20:51;;;;;;;4.28;2.08;;;16.20;99.90;;;;;;7369291;19;20081;-57
2022/11/05 11:23:18;;;;;;;5.63;2.67;;;16.40;99.90;;;;;;7368992;19;20485;-57
2022/11/05 11:25:51;;;;;;;3.63;1.95;;;16.50;99.90;;;;;;7372297;19;20026;-57
2022/11/05 11:28:52;;;;;;;3.47;1.40;;;16.50;99.90;;;;;;7373356;19;20419;-58
2022/11/05 11:31:26;;;;;;;4.20;1.90;;;16.80;99.90;;;;;;7370972;19;20473;-57
2022/11/05 11:34:05;;;;;;;5.03;1.77;;;17.00;99.90;;;;;;7371892;19;20019;-58
2022/11/05 11:36:41;;;;;;;6.80;1.67;;;17.10;99.90;;;;;;7368146;19;20028;-57
2022/11/05 11:39:18;;;;;;;3.05;1.40;;;17.10;99.90;;;;;;7368078;19;20393;-58
2022/11/05 11:41:49;;;;;;;3.45;1.92;;;17.60;99.90;;;;;;7366010;19;20018;-56
2022/11/05 11:44:26;;;;;;;7.75;2.00;;;17.70;99.90;;;;;;7366683;19;20018;-56
2022/11/05 11:46:55;;;;;;;4.22;1.73;;;16.50;99.90;;;;;;7366922;19;20498;-55
2022/11/05 11:49:40;;;;;;;3.55;1.88;;;15.80;99.90;;;;;;7372631;19;20035;-55
2022/11/05 11:52:18;;;;;;;3.85;2.30;;;15.70;99.90;;;;;;7370367;19;20409;-56
2022/11/05 11:54:45;;;;;;;2.58;1.50;;;15.50;99.90;;;;;;7373718;19;20351;-56
2022/11/05 11:57:26;;;;;;;4.93;1.73;;;14.90;99.90;;;;;;7370580;19;20477;-56
2022/11/05 11:59:55;;;;;;;5.38;1.77;;;14.50;99.90;;;;;;7374477;19;20018;-55
2022/11/05 12:02:36;;;;;;;3.85;1.40;;;14.00;99.90;;;;;;7370135;19;20098;-55
2022/11/05 12:05:34;;;;;;;4.57;1.75;;;13.70;99.90;;;;;;7375196;19;20351;-55
2022/11/05 12:08:03;;;;;;;5.75;1.67;;;13.50;99.90;;;;;;7369879;19;20457;-55
2022/11/05 12:10:52;;;;;;;3.25;1.60;;;13.30;99.90;;;;;;7369318;19;20481;-54
2022/11/05 12:13:18;;;;;;;4.10;1.70;;;13.20;99.90;;;;;;7367370;19;20061;-55
2022/11/05 12:15:50;;;;;;;11.43;2.30;;;13.00;99.90;;;;;;7365889;19;20473;-54
2022/11/05 12:18:37;;;;;;;6.00;1.95;;;12.90;99.90;;;;;;7369818;19;20050;-55
2022/11/05 12:21:29;;;;;;;4.97;2.20;;;12.80;99.90;;;;;;7368481;19;20407;-55
2022/11/05 12:24:29;;;;;;;5.88;2.30;;;12.70;99.90;;;;;;7369214;19;20035;-55
2022/11/05 12:27:24;;;;;;;6.13;2.20;;;12.60;99.90;;;;;;7371373;19;20494;-55
2022/11/05 12:30:06;;;;;;;3.03;2.20;;;12.60;99.90;;;;;;7372669;19;20082;-54
2022/11/05 12:33:00;;;;;;;5.90;2.35;;;12.50;99.90;;;;;;7371864;19;20010;-54
2022/11/05 12:36:05;;;;;;;8.18;2.47;;;12.50;99.90;;;;;;7367788;19;20384;-55
2022/11/05 12:38:44;;;;;;;5.85;2.58;;;12.50;99.90;;;;;;7368793;19;20464;-53
2022/11/05 12:41:53;;;;;;;5.82;3.28;;;12.40;99.90;;;;;;7369463;19;20022;-53
2022/11/05 12:44:58;;;;;;;9.32;3.25;;;12.50;99.90;;;;;;7371929;19;20051;-54
2022/11/05 12:47:39;;;;;;;6.43;3.28;;;12.40;99.90;;;;;;7368188;19;20982;-55
2022/11/05 12:50:37;;;;;;;10.35;3.70;;;12.40;99.90;;;;;;7370639;19;20014;-55
2022/11/05 12:53:21;;;;;;;11.23;3.67;;;12.40;99.90;;;;;;7370998;19;20026;-52
2022/11/05 12:55:50;;;;;;;8.73;3.20;;;12.40;99.90;;;;;;7367800;19;20010;-54
2022/11/05 12:58:19;;;;;;;7.97;2.90;;;12.40;99.90;;;;;;7370369;19;20022;-55
2022/11/05 13:00:51;;;;;;;5.60;3.15;;;12.50;99.90;;;;;;7369690;19;21322;-55
2022/11/05 13:03:37;;;;;;;6.65;3.00;;;12.50;99.90;;;;;;7369551;19;20755;-55
2022/11/05 13:06:14;;;;;;;6.70;3.05;;;12.60;99.90;;;;;;7370553;19;20041;-55
2022/11/05 13:08:41;;;;;;;8.15;3.33;;;12.60;99.90;;;;;;7368506;19;20019;-55
2022/11/05 13:11:19;;;;;;;9.02;3.00;;;12.70;99.90;;;;;;7371472;19;20022;-54
2022/11/05 13:13:51;;;;;;;6.63;3.35;;;12.70;99.90;;;;;;7370719;19;20056;-54
2022/11/05 13:16:49;;;;;;;5.50;3.17;;;12.80;99.90;;;;;;7368338;19;20553;-55
2022/11/05 13:19:30;;;;;;;6.68;3.03;;;12.90;99.90;;;;;;7367746;19;20608;-55
2022/11/05 13:22:16;;;;;;;7.93;3.95;;;13.00;99.90;;;;;;7371659;19;20543;-55
2022/11/05 13:24:49;;;;;;;7.88;3.67;;;13.10;99.90;;;;;;7370785;19;20573;-54
2022/11/05 13:27:34;;;;;;;8.45;3.85;;;13.20;99.90;;;;;;7372127;19;20022;-54
2022/11/05 13:30:06;;;;;;;6.63;3.53;;;13.10;99.90;;;;;;7372646;19;20025;-55
2022/11/05 13:32:39;;;;;;;8.05;3.80;;;13.20;99.90;;;;;;7365979;19;20052;-54
2022/11/05 13:35:15;;;;;;;8.32;4.10;;;13.10;99.90;;;;;;7369728;19;20046;-55
2022/11/05 13:41:06;;;;;;;10.77;4.55;;;12.90;99.90;;;;;;7364585;19;20442;-54
2022/11/05 13:44:05;;;;;;;8.13;4.53;;;12.80;99.90;;;;;;7366815;19;20507;-56
2022/11/05 13:47:01;;;;;;;8.95;4.53;;;12.70;99.90;;;;;;7366921;19;20470;-56
2022/11/05 13:49:55;;;;;;;7.35;4.70;;;12.60;99.90;;;;;;7369662;19;20030;-55
2022/11/05 13:53:05;;;;;;;6.28;4.45;;;12.40;99.90;;;;;;7372475;19;20588;-55
2022/11/05 13:55:56;;;;;;;8.20;5.05;;;12.40;99.90;;;;;;7367495;19;20022;-53
2022/11/05 13:58:31;;;;;;;9.07;4.72;;;12.30;99.90;;;;;;7371570;19;20031;-54
2022/11/05 14:01:15;;;;;;;9.38;5.53;;;12.30;99.90;;;;;;7369114;19;20043;-54
2022/11/05 14:03:49;;;;;;;7.13;4.97;;;12.30;99.90;;;;;;7368631;19;20505;-49
2022/11/05 14:06:33;;;;;;;9.43;4.93;;;12.30;99.90;;;;;;7370096;19;20435;-48
2022/11/05 14:09:08;;;;;;;8.45;5.40;;;12.20;99.90;;;;;;7373801;19;20450;-48
2022/11/05 14:11:39;;;;;;;9.93;5.47;;;12.20;99.90;;;;;;7365249;19;20015;-51
2022/11/05 14:14:26;;;;;;;7.68;5.20;;;12.10;99.90;;;;;;7368274;19;20025;-51